Time;durP1;ratioP1;P1;durP2;ratioP2;P2;SDS_P1;SDS_P2;PMS_P1;PMS_P2;Temp;Humidity;BMP_temperature;BMP_pressure;BME280_temperature;BME280_humidity;BME280_pressure;Samples;Min_cycle;Max_cycle;Signal;HPM_P1;HPM_P2
2021/04/05 00:01:04;;;;;;;22.10;7.70;;;;;;;;;;5082351;28;20008;-66
2021/04/05 00:03:29;;;;;;;29.40;8.02;;;;;;;;;;5089566;28;20060;-66
2021/04/05 00:05:55;;;;;;;23.77;8.20;;;;;;;;;;5091785;28;20025;-66
2021/04/05 00:08:20;;;;;;;19.27;7.63;;;;;;;;;;5075688;28;20052;-66
2021/04/05 00:10:50;;;;;;;21.85;7.60;;;;;;;;;;5112216;28;20115;-66
2021/04/05 00:13:17;;;;;;;19.73;7.40;;;;;;;;;;5101138;28;20104;-66
2021/04/05 00:15:42;;;;;;;21.20;7.35;;;;;;;;;;5082857;28;20436;-66
2021/04/05 00:18:08;;;;;;;18.55;7.53;;;;;;;;;;5091653;28;20067;-66
2021/04/05 00:20:36;;;;;;;21.75;8.30;;;;;;;;;;5090264;28;20052;-66
2021/04/05 00:23:03;;;;;;;20.52;7.60;;;;;;;;;;5095690;28;20078;-66
2021/04/05 00:25:28;;;;;;;17.70;7.47;;;;;;;;;;5111845;28;20387;-66
2021/04/05 00:27:54;;;;;;;14.90;6.57;;;;;;;;;;5111034;28;20019;-66
2021/04/05 00:30:27;;;;;;;20.15;7.13;;;;;;;;;;5111414;28;20019;-66
2021/04/05 00:32:53;;;;;;;19.38;6.97;;;;;;;;;;5111056;28;20035;-66
2021/04/05 00:35:19;;;;;;;18.15;6.75;;;;;;;;;;5110612;28;20356;-67
2021/04/05 00:37:46;;;;;;;22.48;7.47;;;;;;;;;;5099766;28;20031;-66
2021/04/05 00:40:13;;;;;;;20.85;6.57;;;;;;;;;;5090372;28;20052;-66
2021/04/05 00:42:39;;;;;;;20.13;6.75;;;;;;;;;;5091178;28;20012;-66
2021/04/05 00:45:08;;;;;;;17.05;6.50;;;;;;;;;;5091004;28;20035;-66
2021/04/05 00:47:34;;;;;;;20.25;7.57;;;;;;;;;;5090688;28;20538;-66
2021/04/05 00:50:00;;;;;;;18.88;6.55;;;;;;;;;;5082654;28;20059;-66
2021/04/05 00:52:25;;;;;;;19.27;6.35;;;;;;;;;;5071105;28;20060;-67
2021/04/05 00:54:51;;;;;;;18.50;6.13;;;;;;;;;;5090478;28;20035;-66
2021/04/05 00:57:16;;;;;;;17.02;7.22;;;;;;;;;;5111204;28;20996;-66
2021/04/05 00:59:41;;;;;;;17.42;6.38;;;;;;;;;;5111012;28;20435;-66
2021/04/05 01:02:08;;;;;;;22.30;7.35;;;;;;;;;;5111045;28;20479;-66
2021/04/05 01:04:33;;;;;;;19.73;6.90;;;;;;;;;;5110831;28;20383;-67
2021/04/05 01:06:59;;;;;;;22.25;7.55;;;;;;;;;;5106058;28;20016;-66
2021/04/05 01:09:24;;;;;;;14.43;6.82;;;;;;;;;;5090089;28;20070;-66
2021/04/05 01:11:49;;;;;;;16.67;7.03;;;;;;;;;;5090346;28;20008;-66
2021/04/05 01:14:15;;;;;;;16.42;6.50;;;;;;;;;;5090504;28;20016;-66
2021/04/05 01:16:40;;;;;;;15.23;6.97;;;;;;;;;;5090991;28;20036;-66
2021/04/05 01:19:05;;;;;;;18.95;7.63;;;;;;;;;;5090906;28;20031;-66
2021/04/05 01:21:31;;;;;;;22.30;8.02;;;;;;;;;;5090279;28;20044;-66
2021/04/05 01:23:56;;;;;;;19.27;6.70;;;;;;;;;;5089937;28;20046;-66
2021/04/05 01:26:22;;;;;;;14.60;6.15;;;;;;;;;;5090392;28;20523;-66
2021/04/05 01:28:47;;;;;;;16.42;6.35;;;;;;;;;;5102471;28;20080;-66
2021/04/05 01:31:12;;;;;;;20.48;6.43;;;;;;;;;;5110897;28;20032;-66
2021/04/05 01:33:39;;;;;;;20.02;6.20;;;;;;;;;;5110655;28;20494;-66
2021/04/05 01:36:04;;;;;;;19.98;6.18;;;;;;;;;;5110754;28;20020;-66
2021/04/05 01:38:37;;;;;;;16.48;6.10;;;;;;;;;;5110288;28;20404;-66
2021/04/05 01:41:06;;;;;;;16.05;7.55;;;;;;;;;;5110055;28;20020;-66
2021/04/05 01:43:32;;;;;;;16.45;5.80;;;;;;;;;;5099765;28;20043;-66
2021/04/05 01:45:58;;;;;;;29.98;8.38;;;;;;;;;;5094094;28;20031;-66
2021/04/05 01:48:24;;;;;;;17.77;6.53;;;;;;;;;;5096819;28;20363;-66
2021/04/05 01:50:50;;;;;;;14.27;5.60;;;;;;;;;;5097473;28;20372;-66
2021/04/05 01:53:18;;;;;;;17.42;7.00;;;;;;;;;;5096426;28;20025;-66
2021/04/05 01:55:44;;;;;;;20.88;5.80;;;;;;;;;;5096679;28;20027;-66
2021/04/05 01:58:10;;;;;;;16.02;6.68;;;;;;;;;;5096668;28;20028;-66
2021/04/05 02:00:37;;;;;;;19.52;6.10;;;;;;;;;;5096324;28;20569;-67
2021/04/05 02:03:06;;;;;;;13.07;4.97;;;;;;;;;;5096320;28;20035;-67
2021/04/05 02:05:31;;;;;;;14.38;5.30;;;;;;;;;;5096697;28;20024;-66
2021/04/05 02:07:57;;;;;;;14.75;4.68;;;;;;;;;;5097316;28;20367;-66
2021/04/05 02:10:23;;;;;;;11.00;3.60;;;;;;;;;;5096572;28;20043;-66
2021/04/05 02:12:49;;;;;;;9.45;3.38;;;;;;;;;;5100546;28;20035;-66
2021/04/05 02:15:14;;;;;;;13.25;3.67;;;;;;;;;;5116928;28;20036;-67
2021/04/05 02:17:40;;;;;;;11.48;3.28;;;;;;;;;;5117055;28;20102;-67
2021/04/05 02:20:12;;;;;;;9.48;2.85;;;;;;;;;;5117230;28;20043;-67
2021/04/05 02:22:42;;;;;;;7.20;2.92;;;;;;;;;;5116472;28;20035;-67
2021/04/05 02:25:10;;;;;;;7.65;2.90;;;;;;;;;;5117260;28;20035;-67
2021/04/05 02:27:35;;;;;;;15.77;3.03;;;;;;;;;;5117319;28;20027;-66
2021/04/05 02:30:01;;;;;;;8.40;3.25;;;;;;;;;;5116496;28;20426;-66
2021/04/05 02:32:26;;;;;;;20.70;3.17;;;;;;;;;;5116751;28;20036;-67
2021/04/05 02:34:52;;;;;;;7.60;2.72;;;;;;;;;;5116681;28;20426;-66
2021/04/05 02:37:17;;;;;;;8.15;2.72;;;;;;;;;;5116927;28;20020;-66
2021/04/05 02:39:42;;;;;;;9.98;2.97;;;;;;;;;;5117460;28;20066;-67
2021/04/05 02:42:08;;;;;;;3.72;1.50;;;;;;;;;;5116634;28;20035;-67
2021/04/05 02:44:33;;;;;;;8.40;1.90;;;;;;;;;;5097188;28;20036;-66
2021/04/05 02:46:59;;;;;;;7.47;1.77;;;;;;;;;;5096311;28;20026;-67
2021/04/05 02:49:24;;;;;;;4.95;1.48;;;;;;;;;;5096239;28;20473;-66
2021/04/05 02:51:50;;;;;;;6.85;2.55;;;;;;;;;;5096842;28;20024;-67
2021/04/05 02:54:19;;;;;;;4.03;1.40;;;;;;;;;;5105804;28;20130;-66
2021/04/05 02:56:45;;;;;;;6.60;2.00;;;;;;;;;;5114888;28;20040;-66
2021/04/05 02:59:11;;;;;;;8.07;2.20;;;;;;;;;;5113445;28;20113;-66
2021/04/05 03:01:38;;;;;;;5.05;1.75;;;;;;;;;;5113300;28;20036;-67
2021/04/05 03:04:04;;;;;;;9.50;1.65;;;;;;;;;;5112968;28;20069;-66
2021/04/05 03:06:29;;;;;;;2.65;0.95;;;;;;;;;;5113416;28;20024;-67
2021/04/05 03:08:57;;;;;;;8.60;1.60;;;;;;;;;;5113662;28;20114;-66
2021/04/05 03:11:24;;;;;;;18.08;1.60;;;;;;;;;;5113429;28;20039;-67
2021/04/05 03:13:49;;;;;;;4.95;1.20;;;;;;;;;;5099509;28;20071;-66
2021/04/05 03:16:16;;;;;;;3.55;1.17;;;;;;;;;;5092815;28;20024;-66
2021/04/05 03:18:43;;;;;;;7.32;1.50;;;;;;;;;;5092630;28;20076;-66
2021/04/05 03:21:09;;;;;;;4.78;1.15;;;;;;;;;;5092554;28;20020;-66
2021/04/05 03:23:34;;;;;;;4.93;2.28;;;;;;;;;;5095444;28;20135;-66
2021/04/05 03:26:00;;;;;;;7.45;1.55;;;;;;;;;;5112791;28;20039;-66
2021/04/05 03:28:25;;;;;;;5.60;1.25;;;;;;;;;;5105352;28;20439;-66
2021/04/05 03:30:52;;;;;;;4.43;1.42;;;;;;;;;;5092174;28;20475;-67
2021/04/05 03:33:21;;;;;;;11.25;1.40;;;;;;;;;;5091837;28;20494;-66
2021/04/05 03:35:50;;;;;;;4.72;1.10;;;;;;;;;;5092298;28;20024;-67
2021/04/05 03:38:15;;;;;;;12.50;2.20;;;;;;;;;;5092096;28;20123;-66
2021/04/05 03:40:41;;;;;;;2.45;0.80;;;;;;;;;;5092898;28;20107;-67
2021/04/05 03:43:18;;;;;;;5.57;1.30;;;;;;;;;;5098561;28;20043;-66
2021/04/05 03:45:47;;;;;;;4.75;0.90;;;;;;;;;;5113215;28;20027;-66
2021/04/05 03:48:20;;;;;;;3.63;1.10;;;;;;;;;;5113201;28;20472;-66
2021/04/05 03:50:48;;;;;;;6.78;1.33;;;;;;;;;;5113167;28;20106;-66
2021/04/05 03:53:14;;;;;;;7.30;1.23;;;;;;;;;;5112826;28;20167;-66
2021/04/05 03:55:40;;;;;;;8.50;2.25;;;;;;;;;;5112331;28;20890;-66
2021/04/05 03:58:07;;;;;;;5.68;1.95;;;;;;;;;;5112393;28;20046;-66
2021/04/05 04:00:34;;;;;;;5.55;1.23;;;;;;;;;;5112150;28;20039;-66
2021/04/05 04:03:00;;;;;;;2.95;1.05;;;;;;;;;;5112132;28;20047;-66
2021/04/05 04:05:41;;;;;;;4.05;0.95;;;;;;;;;;5111828;28;20371;-67
2021/04/05 04:08:26;;;;;;;5.07;0.95;;;;;;;;;;5111572;28;20060;-66
2021/04/05 04:10:53;;;;;;;7.53;1.17;;;;;;;;;;5071736;28;20074;-66
2021/04/05 04:13:19;;;;;;;6.22;0.98;;;;;;;;;;5070899;28;20043;-66
2021/04/05 04:15:47;;;;;;;2.78;0.90;;;;;;;;;;5071544;28;20119;-66
2021/04/05 04:18:14;;;;;;;4.22;1.20;;;;;;;;;;5071320;28;20100;-66
2021/04/05 04:20:39;;;;;;;6.47;1.15;;;;;;;;;;5071192;28;20032;-67
2021/04/05 04:23:04;;;;;;;4.80;1.05;;;;;;;;;;5080855;28;20080;-67
2021/04/05 04:25:30;;;;;;;4.85;1.17;;;;;;;;;;5111748;28;20448;-67
2021/04/05 04:27:55;;;;;;;5.38;0.98;;;;;;;;;;5111304;28;20027;-66
2021/04/05 04:30:32;;;;;;;4.28;1.00;;;;;;;;;;5094391;28;20024;-67
2021/04/05 04:33:01;;;;;;;4.43;1.00;;;;;;;;;;5091037;28;20454;-66
2021/04/05 04:35:27;;;;;;;2.35;0.70;;;;;;;;;;5090685;28;20116;-67
2021/04/05 04:37:52;;;;;;;8.57;1.02;;;;;;;;;;5090937;28;20020;-67
2021/04/05 04:40:27;;;;;;;5.28;1.25;;;;;;;;;;5100360;28;20068;-66
2021/04/05 04:42:56;;;;;;;2.10;0.57;;;;;;;;;;5111103;28;20069;-66
2021/04/05 04:45:23;;;;;;;3.50;0.88;;;;;;;;;;5111243;28;20029;-66
2021/04/05 04:47:49;;;;;;;3.63;0.60;;;;;;;;;;5111145;28;20486;-67
2021/04/05 04:50:15;;;;;;;1.50;0.60;;;;;;;;;;5111302;28;20035;-66
2021/04/05 04:52:40;;;;;;;3.72;1.38;;;;;;;;;;5111735;28;20448;-66
2021/04/05 04:55:06;;;;;;;4.20;0.90;;;;;;;;;;5111069;28;20895;-67
2021/04/05 04:57:31;;;;;;;4.25;0.90;;;;;;;;;;5104777;28;20115;-67
2021/04/05 04:59:58;;;;;;;6.38;1.67;;;;;;;;;;5090234;28;20020;-67
2021/04/05 05:02:23;;;;;;;9.15;1.85;;;;;;;;;;5090764;28;20035;-67
2021/04/05 05:04:49;;;;;;;20.75;2.50;;;;;;;;;;5091035;28;20036;-66
2021/04/05 05:07:15;;;;;;;17.23;2.20;;;;;;;;;;5090489;28;20063;-66
2021/04/05 05:09:40;;;;;;;15.23;3.63;;;;;;;;;;5090151;28;20028;-67
2021/04/05 05:12:06;;;;;;;15.57;2.63;;;;;;;;;;5090511;28;20039;-66
2021/04/05 05:14:31;;;;;;;18.08;3.15;;;;;;;;;;5108796;28;20030;-67
2021/04/05 05:16:57;;;;;;;15.82;3.00;;;;;;;;;;5111349;28;20035;-67
2021/04/05 05:19:22;;;;;;;17.20;4.15;;;;;;;;;;5111097;28;20027;-66
2021/04/05 05:21:50;;;;;;;12.18;3.28;;;;;;;;;;5110496;28;20349;-67
2021/04/05 05:24:19;;;;;;;19.48;4.00;;;;;;;;;;5110598;28;20050;-66
2021/04/05 05:26:44;;;;;;;12.00;3.40;;;;;;;;;;5110459;28;20114;-66
2021/04/05 05:29:11;;;;;;;16.00;3.15;;;;;;;;;;5092063;28;20431;-66
2021/04/05 05:31:37;;;;;;;19.42;2.80;;;;;;;;;;5110515;28;20065;-67
2021/04/05 05:34:03;;;;;;;18.05;3.30;;;;;;;;;;5111534;28;20035;-66
2021/04/05 05:36:28;;;;;;;15.57;3.17;;;;;;;;;;5110426;28;20064;-66
2021/04/05 05:38:54;;;;;;;18.38;3.50;;;;;;;;;;5110559;28;20050;-66
2021/04/05 05:41:23;;;;;;;18.38;4.50;;;;;;;;;;5110648;28;20077;-66
2021/04/05 05:43:52;;;;;;;13.80;3.85;;;;;;;;;;5097149;28;20024;-66
2021/04/05 05:46:31;;;;;;;20.80;3.95;;;;;;;;;;5090087;28;20040;-67
2021/04/05 05:49:21;;;;;;;18.52;4.68;;;;;;;;;;5090280;28;20111;-66
2021/04/05 05:51:55;;;;;;;17.55;4.43;;;;;;;;;;5090142;28;20089;-66
2021/04/05 05:54:28;;;;;;;18.55;3.38;;;;;;;;;;5090048;28;20086;-66
2021/04/05 05:57:02;;;;;;;10.00;3.20;;;;;;;;;;5089584;28;20028;-67
2021/04/05 05:59:28;;;;;;;19.67;3.43;;;;;;;;;;5089577;28;20380;-66
2021/04/05 06:02:16;;;;;;;13.10;3.35;;;;;;;;;;5089725;28;20047;-66
2021/04/05 06:05:05;;;;;;;18.10;4.30;;;;;;;;;;5089549;28;20392;-66
2021/04/05 06:07:49;;;;;;;15.43;3.42;;;;;;;;;;5089971;28;20031;-66
2021/04/05 06:10:24;;;;;;;12.30;3.55;;;;;;;;;;5089814;28;20095;-66
2021/04/05 06:12:55;;;;;;;16.20;3.17;;;;;;;;;;5070534;28;20067;-66
2021/04/05 06:15:21;;;;;;;13.75;2.65;;;;;;;;;;5069824;28;20535;-66
2021/04/05 06:17:59;;;;;;;15.68;4.82;;;;;;;;;;5069586;28;20038;-66
2021/04/05 06:20:39;;;;;;;14.55;3.00;;;;;;;;;;5070176;28;20465;-66
2021/04/05 06:23:23;;;;;;;10.32;3.05;;;;;;;;;;5078905;28;20031;-66
2021/04/05 06:25:54;;;;;;;14.35;2.40;;;;;;;;;;5109783;28;20035;-66
2021/04/05 06:28:28;;;;;;;10.50;2.47;;;;;;;;;;5110041;28;20134;-66
2021/04/05 06:31:12;;;;;;;10.57;1.92;;;;;;;;;;5109990;28;20038;-66
2021/04/05 06:33:38;;;;;;;14.90;2.65;;;;;;;;;;5113048;28;20475;-66
2021/04/05 06:36:10;;;;;;;12.30;2.88;;;;;;;;;;5114229;28;20027;-67
2021/04/05 06:38:38;;;;;;;8.43;3.10;;;;;;;;;;5111293;28;20050;-66
2021/04/05 06:41:20;;;;;;;10.23;2.60;;;;;;;;;;5094164;28;20028;-66
2021/04/05 06:43:56;;;;;;;11.00;3.08;;;;;;;;;;5093174;28;20044;-66
2021/04/05 06:46:22;;;;;;;12.57;2.15;;;;;;;;;;5086415;28;20028;-66
2021/04/05 06:49:09;;;;;;;11.10;2.35;;;;;;;;;;5081501;28;20039;-66
2021/04/05 06:51:34;;;;;;;18.13;3.00;;;;;;;;;;5072644;28;20560;-66
2021/04/05 06:54:08;;;;;;;12.77;3.75;;;;;;;;;;5072597;28;20111;-66
2021/04/05 06:56:43;;;;;;;11.60;2.47;;;;;;;;;;5072658;28;20012;-66
2021/04/05 06:59:29;;;;;;;12.95;2.13;;;;;;;;;;5104002;28;20092;-66
2021/04/05 07:02:00;;;;;;;10.18;1.83;;;;;;;;;;5113194;28;20028;-66
2021/04/05 07:04:42;;;;;;;8.10;2.28;;;;;;;;;;5113198;28;20122;-66
2021/04/05 07:07:26;;;;;;;12.13;2.00;;;;;;;;;;5113106;28;20027;-66
2021/04/05 07:10:03;;;;;;;11.65;1.80;;;;;;;;;;5113024;28;20027;-67
2021/04/05 07:12:47;;;;;;;13.63;2.20;;;;;;;;;;5113237;28;20158;-66
2021/04/05 07:15:17;;;;;;;8.32;2.03;;;;;;;;;;5112940;28;20024;-66
2021/04/05 07:17:55;;;;;;;13.75;2.30;;;;;;;;;;5112869;28;20040;-66
2021/04/05 07:20:45;;;;;;;16.13;2.60;;;;;;;;;;5113561;28;20107;-66
2021/04/05 07:23:38;;;;;;;7.63;1.80;;;;;;;;;;5112533;28;20036;-66
2021/04/05 07:26:14;;;;;;;13.52;2.50;;;;;;;;;;5112925;28;20024;-66
2021/04/05 07:28:42;;;;;;;12.20;2.10;;;;;;;;;;5112210;28;20460;-66
2021/04/05 07:31:26;;;;;;;9.10;1.90;;;;;;;;;;5085842;28;20042;-66
2021/04/05 07:33:52;;;;;;;12.13;2.45;;;;;;;;;;5072078;28;20063;-66
2021/04/05 07:36:25;;;;;;;11.82;1.95;;;;;;;;;;5072227;28;20116;-66
2021/04/05 07:39:02;;;;;;;12.77;2.38;;;;;;;;;;5081037;28;20123;-66
2021/04/05 07:41:36;;;;;;;9.82;3.05;;;;;;;;;;5110892;28;20034;-67
2021/04/05 07:44:20;;;;;;;14.90;2.58;;;;;;;;;;5084683;28;20040;-67
2021/04/05 07:46:56;;;;;;;12.45;1.95;;;;;;;;;;5090936;28;20040;-67
2021/04/05 07:49:23;;;;;;;17.48;2.65;;;;;;;;;;5085789;28;20040;-67
2021/04/05 07:51:48;;;;;;;11.13;1.98;;;;;;;;;;5088422;28;20085;-67
2021/04/05 07:54:15;;;;;;;11.00;2.03;;;;;;;;;;5079722;28;20028;-67
2021/04/05 07:56:47;;;;;;;5.88;1.90;;;;;;;;;;5081812;28;20035;-67
2021/04/05 07:59:44;;;;;;;8.23;1.80;;;;;;;;;;5079967;28;20154;-67
2021/04/05 08:02:28;;;;;;;8.93;1.67;;;;;;;;;;5030302;28;20078;-67
2021/04/05 08:05:15;;;;;;;15.98;2.13;;;;;;;;;;5077213;28;20044;-66
2021/04/05 08:07:52;;;;;;;13.02;1.73;;;;;;;;;;5081103;28;20383;-67
2021/04/05 08:10:29;;;;;;;15.93;2.22;;;;;;;;;;5092493;28;20093;-67
2021/04/05 08:13:00;;;;;;;9.75;1.95;;;;;;;;;;5088718;28;20036;-67
2021/04/05 08:15:45;;;;;;;12.55;2.45;;;;;;;;;;5079972;28;20396;-67
2021/04/05 08:18:24;;;;;;;12.05;1.88;;;;;;;;;;5081551;28;20027;-66
2021/04/05 08:21:01;;;;;;;16.00;1.98;;;;;;;;;;5083806;28;20114;-67
2021/04/05 08:23:36;;;;;;;8.52;1.38;;;;;;;;;;5084574;28;20051;-67
2021/04/05 08:26:23;;;;;;;10.25;1.42;;;;;;;;;;5083829;28;20055;-67
2021/04/05 08:28:48;;;;;;;9.38;1.38;;;;;;;;;;5063793;28;20036;-67
2021/04/05 08:31:28;;;;;;;9.60;1.60;;;;;;;;;;5063300;28;20039;-66
2021/04/05 08:34:18;;;;;;;12.55;2.25;;;;;;;;;;5064053;28;20029;-67
2021/04/05 08:36:46;;;;;;;11.10;2.08;;;;;;;;;;5091876;28;20035;-66
2021/04/05 08:39:27;;;;;;;7.68;2.35;;;;;;;;;;5086057;28;20497;-67
2021/04/05 08:41:53;;;;;;;6.25;1.48;;;;;;;;;;5104112;28;20023;-66
2021/04/05 08:44:41;;;;;;;6.35;1.52;;;;;;;;;;5097268;28;20073;-66
2021/04/05 08:47:08;;;;;;;11.93;2.05;;;;;;;;;;5084673;28;20044;-66
2021/04/05 08:49:35;;;;;;;7.40;1.52;;;;;;;;;;5089114;28;20023;-66
2021/04/05 08:52:07;;;;;;;5.28;0.93;;;;;;;;;;5086815;28;20128;-67
2021/04/05 08:54:35;;;;;;;8.77;1.45;;;;;;;;;;5095378;28;20027;-67
2021/04/05 08:57:03;;;;;;;8.02;0.90;;;;;;;;;;5093975;28;20099;-67
2021/04/05 08:59:37;;;;;;;8.77;1.35;;;;;;;;;;5093102;28;20396;-66
2021/04/05 09:02:24;;;;;;;5.72;0.82;;;;;;;;;;5092499;28;20480;-66
2021/04/05 09:04:50;;;;;;;7.82;1.15;;;;;;;;;;5101145;28;20039;-66
2021/04/05 09:07:33;;;;;;;8.85;0.98;;;;;;;;;;5094382;28;20047;-66
2021/04/05 09:10:03;;;;;;;8.90;1.10;;;;;;;;;;5085426;28;20027;-66
2021/04/05 09:12:29;;;;;;;5.88;1.15;;;;;;;;;;5085488;28;20032;-66
2021/04/05 09:15:17;;;;;;;6.70;1.10;;;;;;;;;;5081174;28;20029;-66
2021/04/05 09:17:57;;;;;;;3.55;0.85;;;;;;;;;;5050498;28;20043;-66
2021/04/05 09:20:42;;;;;;;6.82;1.50;;;;;;;;;;5091044;28;20404;-66
2021/04/05 09:23:10;;;;;;;1.80;0.73;;;;;;;;;;5076395;28;20036;-66
2021/04/05 09:25:35;;;;;;;2.35;0.90;;;;;;;;;;5091259;28;20494;-67
2021/04/05 09:28:19;;;;;;;3.35;1.08;;;;;;;;;;5085864;28;20070;-67
2021/04/05 09:30:50;;;;;;;5.45;0.73;;;;;;;;;;5084738;28;20032;-67
2021/04/05 09:33:44;;;;;;;4.18;0.95;;;;;;;;;;5084942;28;20611;-67
2021/04/05 09:36:21;;;;;;;5.78;0.98;;;;;;;;;;5078647;28;20380;-67
2021/04/05 09:38:53;;;;;;;2.58;0.80;;;;;;;;;;5077929;28;20052;-67
2021/04/05 09:41:21;;;;;;;6.18;0.85;;;;;;;;;;5085628;28;20074;-67
2021/04/05 09:44:05;;;;;;;5.53;1.08;;;;;;;;;;5096664;28;20036;-67
2021/04/05 09:46:54;;;;;;;5.65;0.90;;;;;;;;;;5079285;28;20261;-67
2021/04/05 09:49:19;;;;;;;1.85;0.85;;;;;;;;;;5063844;28;20584;-67
2021/04/05 09:52:04;;;;;;;4.15;1.10;;;;;;;;;;5084652;28;20107;-67
2021/04/05 09:54:43;;;;;;;2.55;1.00;;;;;;;;;;5073868;28;20119;-68
2021/04/05 09:57:14;;;;;;;2.38;0.90;;;;;;;;;;5081637;28;20063;-67
2021/04/05 09:59:44;;;;;;;4.65;1.15;;;;;;;;;;5080626;28;20028;-67
2021/04/05 10:02:10;;;;;;;3.70;1.00;;;;;;;;;;5061528;28;21009;-68
2021/04/05 10:04:37;;;;;;;2.13;0.90;;;;;;;;;;5074198;28;20680;-68
2021/04/05 10:07:04;;;;;;;4.47;1.35;;;;;;;;;;5076126;28;20059;-68
2021/04/05 10:09:31;;;;;;;3.20;1.23;;;;;;;;;;5083714;28;20097;-65
2021/04/05 10:11:59;;;;;;;7.95;1.17;;;;;;;;;;5086168;28;20039;-66
2021/04/05 10:14:25;;;;;;;3.67;1.20;;;;;;;;;;5095660;28;20084;-66
2021/04/05 10:16:53;;;;;;;3.42;1.10;;;;;;;;;;5071829;28;20040;-66
2021/04/05 10:19:30;;;;;;;2.58;0.60;;;;;;;;;;5085364;28;20073;-66
2021/04/05 10:22:10;;;;;;;1.48;0.60;;;;;;;;;;5084649;28;20067;-66
2021/04/05 10:24:40;;;;;;;4.25;0.80;;;;;;;;;;5084693;28;20441;-66
2021/04/05 10:27:07;;;;;;;5.47;0.85;;;;;;;;;;5079886;28;20035;-66
2021/04/05 10:29:33;;;;;;;4.82;0.90;;;;;;;;;;5077964;28;20078;-67
2021/04/05 10:32:00;;;;;;;3.10;0.85;;;;;;;;;;5076976;28;20025;-67
2021/04/05 10:34:26;;;;;;;1.48;0.75;;;;;;;;;;5081382;28;20779;-67
2021/04/05 10:36:55;;;;;;;8.75;1.55;;;;;;;;;;5090762;28;20099;-67
2021/04/05 10:39:21;;;;;;;2.88;0.90;;;;;;;;;;5084495;28;20128;-67
2021/04/05 10:42:07;;;;;;;5.43;1.20;;;;;;;;;;5079043;28;20107;-67
2021/04/05 10:44:37;;;;;;;3.03;1.05;;;;;;;;;;5075825;28;20094;-68
2021/04/05 10:47:06;;;;;;;1.77;0.82;;;;;;;;;;5080747;28;20076;-67
2021/04/05 10:49:33;;;;;;;1.05;0.70;;;;;;;;;;5071784;28;20131;-67
2021/04/05 10:52:01;;;;;;;4.03;1.30;;;;;;;;;;5082717;28;20029;-67
2021/04/05 10:54:36;;;;;;;2.80;0.98;;;;;;;;;;5083243;28;20031;-67
2021/04/05 10:57:24;;;;;;;3.60;1.00;;;;;;;;;;5075743;28;20669;-67
2021/04/05 10:59:51;;;;;;;1.73;1.05;;;;;;;;;;5082426;28;20024;-67
2021/04/05 11:02:26;;;;;;;4.00;1.23;;;;;;;;;;5081938;28;20047;-67
2021/04/05 11:04:55;;;;;;;3.25;1.20;;;;;;;;;;5074647;28;20043;-67
2021/04/05 11:07:21;;;;;;;2.88;1.02;;;;;;;;;;5076549;28;20036;-67
2021/04/05 11:09:47;;;;;;;3.63;1.10;;;;;;;;;;5080242;28;20978;-66
2021/04/05 11:12:14;;;;;;;6.30;1.10;;;;;;;;;;5082820;28;20495;-66
2021/04/05 11:14:41;;;;;;;5.65;1.00;;;;;;;;;;5069382;28;20036;-67
2021/04/05 11:17:07;;;;;;;2.00;0.82;;;;;;;;;;5077139;28;20020;-67
2021/04/05 11:19:47;;;;;;;2.03;0.88;;;;;;;;;;5080575;28;20028;-67
2021/04/05 11:22:17;;;;;;;3.40;1.08;;;;;;;;;;5083066;28;20039;-67
2021/04/05 11:24:43;;;;;;;3.50;1.20;;;;;;;;;;5084625;28;20071;-67
2021/04/05 11:27:10;;;;;;;3.78;1.00;;;;;;;;;;5079978;28;20083;-67
2021/04/05 11:29:38;;;;;;;3.65;1.20;;;;;;;;;;5076776;28;20020;-67
2021/04/05 11:32:03;;;;;;;3.67;1.17;;;;;;;;;;5083049;28;20028;-67
2021/04/05 11:34:34;;;;;;;5.70;1.30;;;;;;;;;;5082483;28;20039;-67
2021/04/05 11:37:00;;;;;;;3.15;1.40;;;;;;;;;;5070449;28;20034;-67
2021/04/05 11:39:30;;;;;;;3.72;1.17;;;;;;;;;;5083099;28;20050;-67
2021/04/05 11:41:56;;;;;;;5.72;1.27;;;;;;;;;;5080614;28;20070;-67
2021/04/05 11:44:23;;;;;;;4.57;1.27;;;;;;;;;;5082096;28;20060;-67
2021/04/05 11:46:48;;;;;;;4.78;1.27;;;;;;;;;;5069931;28;20380;-67
2021/04/05 11:49:17;;;;;;;3.28;1.15;;;;;;;;;;5079778;28;20031;-67
2021/04/05 11:51:47;;;;;;;4.18;1.25;;;;;;;;;;5097519;28;20019;-67
2021/04/05 11:54:29;;;;;;;3.83;1.00;;;;;;;;;;5103217;28;20031;-67
2021/04/05 11:56:56;;;;;;;4.07;1.08;;;;;;;;;;5103690;28;20036;-67
2021/04/05 11:59:23;;;;;;;2.13;1.05;;;;;;;;;;5091690;28;20478;-67
2021/04/05 12:02:05;;;;;;;4.82;1.40;;;;;;;;;;5089719;28;20032;-67
2021/04/05 12:04:41;;;;;;;4.55;1.52;;;;;;;;;;5076707;28;20093;-67
2021/04/05 12:07:09;;;;;;;6.15;1.45;;;;;;;;;;5083823;28;20036;-66
2021/04/05 12:09:37;;;;;;;5.55;1.30;;;;;;;;;;5080191;28;20016;-67
2021/04/05 12:12:05;;;;;;;1.33;1.00;;;;;;;;;;5086657;28;20031;-67
2021/04/05 12:14:31;;;;;;;4.57;1.38;;;;;;;;;;5086522;28;20024;-67
2021/04/05 12:16:58;;;;;;;1.58;0.93;;;;;;;;;;5096049;28;20040;-67
2021/04/05 12:19:26;;;;;;;6.72;1.25;;;;;;;;;;5078153;28;20046;-67
2021/04/05 12:21:52;;;;;;;2.97;0.95;;;;;;;;;;5080393;28;20031;-66
2021/04/05 12:24:23;;;;;;;2.42;0.90;;;;;;;;;;5084929;28;20400;-67
2021/04/05 12:26:48;;;;;;;3.17;1.25;;;;;;;;;;5080231;28;20529;-67
2021/04/05 12:29:14;;;;;;;1.52;0.88;;;;;;;;;;5080061;28;20020;-66
2021/04/05 12:31:40;;;;;;;2.33;0.90;;;;;;;;;;5078878;28;20036;-67
2021/04/05 12:34:07;;;;;;;5.28;0.90;;;;;;;;;;5080506;28;20031;-67
2021/04/05 12:36:34;;;;;;;3.83;1.25;;;;;;;;;;5079607;28;20464;-67
2021/04/05 12:39:00;;;;;;;3.95;0.90;;;;;;;;;;5078798;28;20048;-66
2021/04/05 12:41:31;;;;;;;2.85;0.90;;;;;;;;;;5079188;28;20038;-66
2021/04/05 12:43:57;;;;;;;3.67;1.08;;;;;;;;;;5078077;28;20135;-66
2021/04/05 12:46:22;;;;;;;3.50;1.10;;;;;;;;;;5081178;28;20035;-66
2021/04/05 12:48:47;;;;;;;2.13;1.10;;;;;;;;;;5080307;28;20038;-67
2021/04/05 12:51:16;;;;;;;2.60;1.20;;;;;;;;;;5081851;28;20055;-67
2021/04/05 12:53:43;;;;;;;7.32;1.52;;;;;;;;;;5083374;28;20054;-67
2021/04/05 12:56:14;;;;;;;5.78;1.15;;;;;;;;;;5073914;28;20485;-67
2021/04/05 12:58:40;;;;;;;4.07;1.08;;;;;;;;;;5074471;28;20661;-67
2021/04/05 13:01:06;;;;;;;3.63;1.20;;;;;;;;;;5071514;28;20086;-67
2021/04/05 13:03:43;;;;;;;2.63;1.40;;;;;;;;;;5079566;28;20063;-66
2021/04/05 13:06:11;;;;;;;5.57;1.65;;;;;;;;;;5079385;28;20028;-67
2021/04/05 13:08:39;;;;;;;2.75;1.33;;;;;;;;;;5080049;28;20047;-67
2021/04/05 13:11:17;;;;;;;3.92;1.08;;;;;;;;;;5079372;28;20028;-66
2021/04/05 13:13:46;;;;;;;7.13;1.63;;;;;;;;;;5047561;28;20717;-67
2021/04/05 13:16:18;;;;;;;3.50;1.27;;;;;;;;;;5085753;28;20499;-67
2021/04/05 13:18:46;;;;;;;4.28;1.30;;;;;;;;;;5080551;28;20078;-67
2021/04/05 13:21:12;;;;;;;2.42;1.42;;;;;;;;;;5080632;28;20127;-67
2021/04/05 13:23:51;;;;;;;6.00;1.58;;;;;;;;;;5082557;28;20024;-67
2021/04/05 13:26:23;;;;;;;5.90;1.58;;;;;;;;;;5086353;28;20601;-67
2021/04/05 13:28:48;;;;;;;3.10;1.38;;;;;;;;;;5083859;28;20426;-67
2021/04/05 13:31:15;;;;;;;3.17;1.40;;;;;;;;;;5089508;28;20016;-67
2021/04/05 13:33:42;;;;;;;2.13;1.20;;;;;;;;;;5077827;28;20101;-67
2021/04/05 13:36:10;;;;;;;3.17;1.45;;;;;;;;;;5078967;28;20035;-67
2021/04/05 13:38:35;;;;;;;3.55;1.10;;;;;;;;;;5080538;28;20631;-67
2021/04/05 13:41:05;;;;;;;4.88;1.52;;;;;;;;;;5075403;28;20042;-67
2021/04/05 13:43:31;;;;;;;3.13;1.25;;;;;;;;;;5081614;28;20116;-67
2021/04/05 13:45:56;;;;;;;2.55;0.82;;;;;;;;;;5082699;28;20045;-67
2021/04/05 13:48:24;;;;;;;3.80;1.10;;;;;;;;;;5088691;28;20035;-66
2021/04/05 13:50:50;;;;;;;4.35;1.20;;;;;;;;;;5074789;28;20055;-66
2021/04/05 13:53:23;;;;;;;0.98;0.73;;;;;;;;;;5076376;28;20099;-66
2021/04/05 13:55:52;;;;;;;3.47;0.70;;;;;;;;;;5080150;28;20056;-67
2021/04/05 13:58:18;;;;;;;1.73;1.05;;;;;;;;;;5081182;28;20040;-66
2021/04/05 14:00:44;;;;;;;4.45;0.73;;;;;;;;;;5084863;28;20016;-67
2021/04/05 14:03:12;;;;;;;3.50;1.05;;;;;;;;;;5081567;28;20213;-67
2021/04/05 14:05:41;;;;;;;1.20;0.85;;;;;;;;;;5084732;28;20036;-66
2021/04/05 14:08:15;;;;;;;2.60;0.93;;;;;;;;;;5102638;28;20030;-66
2021/04/05 14:10:40;;;;;;;0.93;0.70;;;;;;;;;;5101467;28;20035;-67
2021/04/05 14:13:08;;;;;;;1.58;0.85;;;;;;;;;;5082466;28;20043;-66
2021/04/05 14:15:35;;;;;;;1.52;0.70;;;;;;;;;;5081212;28;20068;-66
2021/04/05 14:18:08;;;;;;;2.05;0.70;;;;;;;;;;5081378;28;20082;-66
2021/04/05 14:20:36;;;;;;;3.03;1.13;;;;;;;;;;5082145;28;20036;-67
2021/04/05 14:23:07;;;;;;;2.30;0.82;;;;;;;;;;5083202;28;20827;-66
2021/04/05 14:25:34;;;;;;;2.65;1.00;;;;;;;;;;5081006;28;20036;-66
2021/04/05 14:28:09;;;;;;;1.27;0.73;;;;;;;;;;5081604;28;20024;-66
2021/04/05 14:30:37;;;;;;;1.50;0.80;;;;;;;;;;5082627;28;20139;-67
2021/04/05 14:33:04;;;;;;;1.55;0.70;;;;;;;;;;5082163;28;20032;-67
2021/04/05 14:35:32;;;;;;;2.28;1.00;;;;;;;;;;5080666;28;20031;-66
2021/04/05 14:38:06;;;;;;;1.40;0.65;;;;;;;;;;5082301;28;20737;-66
2021/04/05 14:40:34;;;;;;;1.13;0.60;;;;;;;;;;5086442;28;20048;-67
2021/04/05 14:43:05;;;;;;;3.88;0.90;;;;;;;;;;5080662;28;20557;-66
2021/04/05 14:45:32;;;;;;;4.95;0.90;;;;;;;;;;5080826;28;20051;-66
2021/04/05 14:47:58;;;;;;;2.30;0.77;;;;;;;;;;5081425;28;20028;-66
2021/04/05 14:50:35;;;;;;;4.05;0.90;;;;;;;;;;5081444;28;20035;-67
2021/04/05 14:53:05;;;;;;;3.50;1.20;;;;;;;;;;5071729;28;20033;-66
2021/04/05 14:55:35;;;;;;;3.75;1.20;;;;;;;;;;5084774;28;20500;-66